createdAt,value
2017-11-17T00:00:57.321Z,72.50
2017-11-17T00:03:26.563Z,72.50
2017-11-17T00:05:55.814Z,72.50
2017-11-17T00:08:25.088Z,72.40
2017-11-17T00:10:54.436Z,73.10
2017-11-17T00:13:23.672Z,73.10
2017-11-17T00:15:53.013Z,73.30
2017-11-17T00:18:22.255Z,73.50
2017-11-17T00:20:51.508Z,73.60
2017-11-17T00:23:20.779Z,73.40
2017-11-17T00:25:50.794Z,73.60
2017-11-17T00:28:20.844Z,73.30
2017-11-17T00:30:50.106Z,73.30
2017-11-17T00:33:19.353Z,73.00
2017-11-17T00:35:48.596Z,73.40
2017-11-17T00:38:17.887Z,73.00
2017-11-17T00:40:47.132Z,72.60
2017-11-17T00:43:16.373Z,73.40
2017-11-17T00:45:45.649Z,72.70
2017-11-17T00:48:14.900Z,72.80
2017-11-17T00:50:44.164Z,72.60
2017-11-17T00:53:13.428Z,72.50
2017-11-17T00:55:42.665Z,72.50
2017-11-17T00:58:12.020Z,72.50
2017-11-17T01:00:41.286Z,72.40
2017-11-17T01:03:10.527Z,72.50
2017-11-17T01:05:39.824Z,72.50
2017-11-17T01:08:09.076Z,72.50
2017-11-17T01:10:38.324Z,72.80
2017-11-17T01:13:07.610Z,72.60
2017-11-17T01:15:37.618Z,72.90
2017-11-17T01:18:06.869Z,72.90
2017-11-17T01:20:36.178Z,72.70
2017-11-17T01:23:05.427Z,72.30
2017-11-17T01:25:34.693Z,72.60
2017-11-17T01:28:03.976Z,72.60
2017-11-17T01:30:33.261Z,72.40
2017-11-17T01:33:02.509Z,72.50
2017-11-17T01:35:31.796Z,72.80
2017-11-17T01:38:01.033Z,72.90
2017-11-17T01:40:31.088Z,73.10
2017-11-17T01:43:00.338Z,73.10
2017-11-17T01:45:29.589Z,73.20
2017-11-17T01:47:58.865Z,73.40
2017-11-17T01:50:28.129Z,73.10
2017-11-17T01:52:57.400Z,73.10
2017-11-17T01:55:26.666Z,73.60
2017-11-17T01:57:55.923Z,73.30
2017-11-17T02:03:45.430Z,73.40
2017-11-17T02:06:17.184Z,73.10
2017-11-17T02:08:47.441Z,73.40
2017-11-17T02:11:18.360Z,73.60
2017-11-17T02:13:52.114Z,73.60
2017-11-17T02:16:22.276Z,73.80
2017-11-17T02:18:53.328Z,73.90
2017-11-17T02:21:26.545Z,73.80
2017-11-17T02:23:58.830Z,73.60
2017-11-17T02:26:33.505Z,73.70
2017-11-17T02:29:05.662Z,73.60
2017-11-17T02:31:37.407Z,73.70
2017-11-17T02:34:08.217Z,73.60
2017-11-17T02:36:39.158Z,73.60
2017-11-17T02:39:15.669Z,73.60
2017-11-17T02:41:47.528Z,73.60
2017-11-17T02:44:18.587Z,73.40
2017-11-17T02:46:48.782Z,73.60
2017-11-17T02:49:20.711Z,73.60
2017-11-17T02:51:52.426Z,73.50
2017-11-17T02:54:25.619Z,73.30
2017-11-17T02:56:58.565Z,73.30
2017-11-17T02:59:29.304Z,73.60
2017-11-17T03:02:01.247Z,73.70
2017-11-17T03:04:33.247Z,73.50
2017-11-17T03:07:04.196Z,73.40
2017-11-17T03:09:35.847Z,73.30
2017-11-17T03:12:07.733Z,73.60
2017-11-17T03:14:39.136Z,73.70
2017-11-17T03:17:11.144Z,73.50
2017-11-17T03:19:42.871Z,73.60
2017-11-17T03:22:15.468Z,73.70
2017-11-17T03:24:45.626Z,73.70
2017-11-17T03:27:16.895Z,73.80
2017-11-17T03:29:49.375Z,73.20
2017-11-17T03:32:19.231Z,74.00
2017-11-17T03:34:50.306Z,74.20
2017-11-17T03:37:20.115Z,74.10
2017-11-17T03:39:51.217Z,74.50
2017-11-17T03:42:22.197Z,74.80
2017-11-17T03:44:54.328Z,75.10
2017-11-17T03:47:26.112Z,75.00
2017-11-17T03:49:57.697Z,75.80
2017-11-17T03:52:27.638Z,75.20
2017-11-17T03:54:59.611Z,75.00
2017-11-17T03:57:30.877Z,75.20
2017-11-17T04:00:05.590Z,75.30
2017-11-17T04:02:36.377Z,75.30
2017-11-17T04:05:08.662Z,75.00
2017-11-17T04:07:39.784Z,76.30
2017-11-17T04:10:12.334Z,76.30
2017-11-17T04:12:46.241Z,77.40
2017-11-17T04:15:17.048Z,78.10
2017-11-17T04:17:50.886Z,78.50
2017-11-17T04:20:23.257Z,79.40
2017-11-17T04:22:57.952Z,79.90
2017-11-17T04:25:30.325Z,81.10
2017-11-17T04:28:02.437Z,80.70
2017-11-17T04:30:33.202Z,81.00
2017-11-17T04:33:06.219Z,83.00
2017-11-17T04:35:37.853Z,82.90
2017-11-17T04:38:08.090Z,82.60
2017-11-17T04:40:42.373Z,83.50
2017-11-17T04:43:13.585Z,83.30
2017-11-17T04:45:48.754Z,83.90
2017-11-17T04:48:19.746Z,84.60
2017-11-17T04:50:52.715Z,84.70
2017-11-17T04:53:24.211Z,85.00
2017-11-17T04:55:56.313Z,85.40
2017-11-17T04:58:29.628Z,85.70
2017-11-17T05:01:00.665Z,85.60
2017-11-17T05:03:35.455Z,86.00
2017-11-17T05:06:11.127Z,86.20
2017-11-17T05:08:46.428Z,86.00
2017-11-17T05:11:21.720Z,86.30
2017-11-17T05:13:58.825Z,86.40
2017-11-17T05:16:48.487Z,86.80
2017-11-17T05:19:23.634Z,86.50
2017-11-17T05:21:56.222Z,86.70
2017-11-17T05:24:27.595Z,86.70
2017-11-17T05:30:03.594Z,86.10
2017-11-17T05:32:33.818Z,86.80
2017-11-17T05:35:05.520Z,87.20
2017-11-17T05:37:41.345Z,86.60
2017-11-17T05:40:18.663Z,86.50
2017-11-17T05:42:53.304Z,86.50
2017-11-17T05:48:04.523Z,86.00
2017-11-17T05:50:35.711Z,86.40
2017-11-17T05:53:08.555Z,86.30
2017-11-17T05:55:41.716Z,86.10
2017-11-17T05:58:13.625Z,86.00
2017-11-17T06:00:45.248Z,85.80
2017-11-17T06:03:15.524Z,85.70
2017-11-17T06:05:48.532Z,85.00
2017-11-17T06:08:18.766Z,85.50
2017-11-17T06:10:52.729Z,85.70
2017-11-17T06:13:24.063Z,85.80
2017-11-17T06:15:54.035Z,86.20
2017-11-17T06:18:30.894Z,86.60
2017-11-17T06:21:04.235Z,87.00
2017-11-17T06:23:38.357Z,87.00
2017-11-17T06:26:09.421Z,87.00
2017-11-17T06:28:41.990Z,87.30
2017-11-17T06:31:12.370Z,86.80
2017-11-17T06:33:43.140Z,87.20
2017-11-17T06:36:16.155Z,87.10
2017-11-17T06:38:46.970Z,87.00
2017-11-17T06:41:18.104Z,86.30
2017-11-17T06:43:49.153Z,85.80
2017-11-17T06:46:20.077Z,86.00
2017-11-17T06:48:52.698Z,86.20
2017-11-17T06:51:25.123Z,86.20
2017-11-17T06:53:58.907Z,86.10
2017-11-17T06:56:32.543Z,85.80
2017-11-17T06:59:03.957Z,85.80
2017-11-17T07:01:34.353Z,85.80
2017-11-17T07:04:04.192Z,85.70
2017-11-17T07:06:34.121Z,86.10
2017-11-17T07:09:05.466Z,86.60
2017-11-17T07:11:35.798Z,86.60
2017-11-17T07:14:09.153Z,87.20
2017-11-17T07:16:39.235Z,87.10
2017-11-17T07:21:55.838Z,87.00
2017-11-17T07:24:33.368Z,87.40
2017-11-17T07:27:05.318Z,87.40
2017-11-17T07:32:38.511Z,87.00
2017-11-17T07:35:10.215Z,87.00
2017-11-17T07:40:17.648Z,86.30
2017-11-17T07:42:48.347Z,85.90
2017-11-17T07:45:18.820Z,85.80
2017-11-17T07:47:49.644Z,85.90
2017-11-17T07:50:21.881Z,86.40
2017-11-17T07:52:52.765Z,86.20
2017-11-17T07:55:25.119Z,86.50
2017-11-17T07:57:57.576Z,86.40
2017-11-17T08:00:30.156Z,86.90
2017-11-17T08:03:02.855Z,87.10
2017-11-17T08:05:34.264Z,87.20
2017-11-17T08:08:05.317Z,86.40
2017-11-17T08:10:35.873Z,87.40
2017-11-17T08:13:06.431Z,87.20
2017-11-17T08:15:37.138Z,87.00
2017-11-17T08:18:24.557Z,86.60
2017-11-17T08:20:54.276Z,87.30
2017-11-17T08:23:24.900Z,87.40
2017-11-17T08:25:54.499Z,87.40
2017-11-17T08:28:26.559Z,87.70
2017-11-17T08:30:58.050Z,87.60
2017-11-17T08:33:28.969Z,88.00
2017-11-17T08:36:01.215Z,88.50
2017-11-17T08:38:32.441Z,88.50
2017-11-17T08:41:05.473Z,88.20
2017-11-17T08:43:39.440Z,88.60
2017-11-17T08:46:11.907Z,87.90
2017-11-17T08:48:42.906Z,88.50
2017-11-17T08:51:15.315Z,88.10
2017-11-17T08:53:49.757Z,87.90
2017-11-17T08:56:19.874Z,88.40
2017-11-17T08:58:52.577Z,87.70
2017-11-17T09:01:22.917Z,87.80
2017-11-17T09:03:54.688Z,88.70
2017-11-17T09:06:28.078Z,87.80
2017-11-17T09:09:00.361Z,87.90
2017-11-17T09:11:36.422Z,87.70
2017-11-17T09:14:08.757Z,87.40
2017-11-17T09:16:41.022Z,87.10
2017-11-17T09:19:11.778Z,87.50
2017-11-17T09:21:44.647Z,87.30
2017-11-17T09:24:15.027Z,87.60
2017-11-17T09:26:47.175Z,87.40
2017-11-17T09:29:18.527Z,87.70
2017-11-17T09:31:51.081Z,88.90
2017-11-17T09:34:23.845Z,88.90
2017-11-17T09:36:57.218Z,88.60
2017-11-17T09:39:30.983Z,88.70
2017-11-17T09:42:04.994Z,88.00
2017-11-17T09:44:36.230Z,87.90
2017-11-17T09:47:08.060Z,89.60
2017-11-17T09:49:41.051Z,89.30
2017-11-17T09:52:14.215Z,89.10
2017-11-17T09:54:48.457Z,89.50
2017-11-17T09:57:23.012Z,89.30
2017-11-17T09:59:53.491Z,88.40
2017-11-17T10:02:24.062Z,89.10
2017-11-17T10:04:54.905Z,88.40
2017-11-17T10:07:25.408Z,88.30
2017-11-17T10:09:56.491Z,87.80
2017-11-17T10:12:28.380Z,87.80
2017-11-17T10:14:58.910Z,87.70
2017-11-17T10:17:28.894Z,87.60
2017-11-17T10:19:58.999Z,88.10
2017-11-17T10:22:29.756Z,87.40
2017-11-17T10:24:59.987Z,87.50
2017-11-17T10:27:31.615Z,88.40
2017-11-17T10:30:01.552Z,87.70
2017-11-17T10:32:31.507Z,87.40
2017-11-17T10:35:03.737Z,87.50
2017-11-17T10:37:37.564Z,88.60
2017-11-17T10:40:13.384Z,87.80
2017-11-17T10:42:46.027Z,88.50
2017-11-17T10:45:25.954Z,88.30
2017-11-17T10:47:55.885Z,87.60
2017-11-17T10:50:29.943Z,86.80
2017-11-17T10:53:00.971Z,86.60
2017-11-17T10:55:31.189Z,86.90
2017-11-17T10:58:01.461Z,86.70
2017-11-17T11:00:32.937Z,87.20
2017-11-17T11:03:05.212Z,87.80
2017-11-17T11:05:37.107Z,87.70
2017-11-17T11:08:07.865Z,87.60
2017-11-17T11:10:39.427Z,88.20
2017-11-17T11:13:09.269Z,88.20
2017-11-17T11:15:39.127Z,88.00
2017-11-17T11:18:13.693Z,87.00
2017-11-17T11:20:44.986Z,87.50
2017-11-17T11:23:19.132Z,87.20
2017-11-17T11:28:35.574Z,86.70
2017-11-17T11:31:07.773Z,86.70
2017-11-17T11:33:43.571Z,86.80
2017-11-17T11:36:18.338Z,86.60
2017-11-17T11:38:55.011Z,87.10
2017-11-17T11:41:33.054Z,87.40
2017-11-17T11:44:16.072Z,88.80
2017-11-17T11:47:00.705Z,87.10
2017-11-17T11:52:17.922Z,87.70
2017-11-17T11:55:02.678Z,88.20
2017-11-17T11:57:33.804Z,88.20
2017-11-17T12:00:16.706Z,87.80
2017-11-17T12:02:48.908Z,87.80
2017-11-17T12:05:25.980Z,87.90
2017-11-17T12:08:01.039Z,88.40
2017-11-17T12:14:10.430Z,88.30
2017-11-17T12:16:39.713Z,87.50
2017-11-17T12:19:09.013Z,88.40
2017-11-17T12:21:38.278Z,88.40
2017-11-17T12:24:07.582Z,88.00
2017-11-17T12:26:37.472Z,87.80
2017-11-17T12:29:08.888Z,87.50
2017-11-17T12:31:40.527Z,88.20
2017-11-17T12:34:10.994Z,88.00
2017-11-17T12:36:40.258Z,87.90
2017-11-17T12:39:09.534Z,88.30
2017-11-17T12:44:56.389Z,88.70
2017-11-17T12:47:26.404Z,87.30
2017-11-17T12:49:56.550Z,87.30
2017-11-17T12:52:26.574Z,88.40
2017-11-17T12:54:55.909Z,88.40
2017-11-17T12:57:25.190Z,88.80
2017-11-17T12:59:54.441Z,88.10
2017-11-17T13:03:12.194Z,87.90
2017-11-17T13:05:49.074Z,87.40
2017-11-17T13:08:18.396Z,87.20
2017-11-17T13:10:47.664Z,87.70
2017-11-17T13:13:17.748Z,88.20
2017-11-17T13:15:47.730Z,88.10
2017-11-17T13:18:17.001Z,88.10
2017-11-17T13:20:46.255Z,88.30
2017-11-17T13:23:20.424Z,89.10
2017-11-17T13:25:49.690Z,88.80
2017-11-17T13:28:23.384Z,88.50
2017-11-17T13:30:52.665Z,88.60
2017-11-17T13:33:21.970Z,88.20
2017-11-17T13:35:51.237Z,88.90
2017-11-17T13:38:20.497Z,89.30
2017-11-17T13:40:49.774Z,89.10
2017-11-17T13:43:19.092Z,89.00
2017-11-17T13:45:48.360Z,88.20
2017-11-17T13:48:17.693Z,87.80
2017-11-17T13:50:46.937Z,87.70
2017-11-17T13:53:16.275Z,88.40
2017-11-17T13:55:45.613Z,88.40
2017-11-17T13:58:15.653Z,89.00
2017-11-17T14:00:44.959Z,88.80
2017-11-17T14:03:14.209Z,89.10
2017-11-17T14:05:43.472Z,89.20
2017-11-17T14:08:12.792Z,88.90
2017-11-17T14:10:42.016Z,88.80
2017-11-17T14:16:23.125Z,88.40
2017-11-17T14:19:01.669Z,88.40
2017-11-17T14:21:35.700Z,88.20
2017-11-17T14:24:09.082Z,88.80
2017-11-17T14:26:42.907Z,88.60
2017-11-17T14:29:13.791Z,88.90
2017-11-17T14:31:47.298Z,88.60
2017-11-17T14:34:20.344Z,88.20
2017-11-17T14:36:58.098Z,88.30
2017-11-17T14:39:36.373Z,88.30
2017-11-17T14:47:53.173Z,86.50
2017-11-17T14:50:26.038Z,85.60
2017-11-17T14:53:02.976Z,86.10
2017-11-17T14:55:38.176Z,85.50
2017-11-17T15:01:00.650Z,85.70
2017-11-17T15:06:16.705Z,86.50
2017-11-17T15:08:46.008Z,86.50
2017-11-17T15:11:15.267Z,85.70
2017-11-17T15:13:44.520Z,85.70
2017-11-17T15:16:14.545Z,85.00
2017-11-17T15:18:44.552Z,85.30
2017-11-17T15:21:14.586Z,85.00
2017-11-17T15:23:43.867Z,85.00
2017-11-17T15:26:13.102Z,84.90
2017-11-17T15:28:42.365Z,84.80
2017-11-17T15:31:11.597Z,85.90
2017-11-17T15:33:40.844Z,85.30
2017-11-17T15:36:10.100Z,84.40
2017-11-17T15:38:39.365Z,84.70
2017-11-17T15:41:08.612Z,85.10
2017-11-17T15:43:37.838Z,85.60
2017-11-17T15:46:07.100Z,85.70
2017-11-17T15:48:36.341Z,86.20
2017-11-17T15:51:05.605Z,86.30
2017-11-17T15:53:34.847Z,86.90
2017-11-17T15:56:04.088Z,87.10
2017-11-17T15:58:33.321Z,86.90
2017-11-17T16:01:02.593Z,86.80
2017-11-17T16:03:31.824Z,87.00
2017-11-17T16:06:01.083Z,87.50
2017-11-17T16:08:30.369Z,87.80
2017-11-17T16:10:59.803Z,87.50
2017-11-17T16:13:29.052Z,86.80
2017-11-17T16:15:58.349Z,87.00
2017-11-17T16:18:27.592Z,87.20
2017-11-17T16:20:56.821Z,87.50
2017-11-17T16:23:26.086Z,87.00
2017-11-17T16:25:55.317Z,86.60
2017-11-17T16:28:24.561Z,87.00
2017-11-17T16:30:54.596Z,86.50
2017-11-17T16:33:23.856Z,86.50
2017-11-17T16:35:53.093Z,85.40
2017-11-17T16:38:23.103Z,82.80
2017-11-17T16:40:53.104Z,81.70
2017-11-17T16:43:22.354Z,81.70
2017-11-17T16:45:51.634Z,80.00
2017-11-17T16:48:21.654Z,78.20
2017-11-17T16:50:51.679Z,78.00
2017-11-17T16:53:21.005Z,78.00
2017-11-17T16:55:50.284Z,78.30
2017-11-17T16:58:19.558Z,78.70
2017-11-17T17:00:50.917Z,80.10
2017-11-17T17:03:20.939Z,79.50
2017-11-17T17:05:50.951Z,80.00
2017-11-17T17:08:20.204Z,79.90
2017-11-17T17:10:49.475Z,80.60
2017-11-17T17:13:18.759Z,81.00
2017-11-17T17:15:48.009Z,81.60
2017-11-17T17:18:17.261Z,82.60
2017-11-17T17:20:46.529Z,83.00
2017-11-17T17:23:15.769Z,83.60
2017-11-17T17:25:45.012Z,84.20
2017-11-17T17:28:14.268Z,84.40
2017-11-17T17:30:43.513Z,84.90
2017-11-17T17:33:12.851Z,85.50
2017-11-17T17:35:42.127Z,85.60
2017-11-17T17:38:11.373Z,86.10
2017-11-17T17:40:41.420Z,86.90
2017-11-17T17:43:10.661Z,86.30
2017-11-17T17:45:40.719Z,87.20
2017-11-17T17:48:09.975Z,87.20
2017-11-17T17:50:41.229Z,87.40
2017-11-17T17:53:11.240Z,87.40
2017-11-17T17:55:41.260Z,87.20
2017-11-17T17:58:11.276Z,87.40
2017-11-17T18:00:41.298Z,87.20
2017-11-17T18:03:12.137Z,87.40
2017-11-17T18:05:42.152Z,87.40
2017-11-17T18:08:12.180Z,87.10
2017-11-17T18:10:42.184Z,86.80
2017-11-17T18:13:12.209Z,86.80
2017-11-17T18:15:41.585Z,86.80
2017-11-17T18:18:10.830Z,87.00
2017-11-17T18:20:40.104Z,87.10
2017-11-17T18:23:10.138Z,87.50
2017-11-17T18:25:40.858Z,87.50
2017-11-17T18:28:10.127Z,87.50
2017-11-17T18:30:39.392Z,87.60
2017-11-17T18:33:08.632Z,87.70
2017-11-17T18:35:37.908Z,87.60
2017-11-17T18:38:07.188Z,87.50
2017-11-17T18:40:36.376Z,87.50
2017-11-17T18:43:05.629Z,87.60
2017-11-17T18:45:34.880Z,87.70
2017-11-17T18:51:25.930Z,87.90
2017-11-17T18:53:55.960Z,87.70
2017-11-17T18:56:25.195Z,87.60
2017-11-17T18:58:54.452Z,87.50
2017-11-17T19:01:24.469Z,87.10
2017-11-17T19:03:54.340Z,87.00
2017-11-17T19:06:24.348Z,87.30
2017-11-17T19:08:54.374Z,87.30
2017-11-17T19:11:23.607Z,87.20
2017-11-17T19:13:52.863Z,87.20
2017-11-17T19:16:22.107Z,87.00
2017-11-17T19:18:51.361Z,86.80
2017-11-17T19:21:20.817Z,86.90
2017-11-17T19:23:50.101Z,86.60
2017-11-17T19:26:19.488Z,86.20
2017-11-17T19:28:49.518Z,85.60
2017-11-17T19:31:18.764Z,85.70
2017-11-17T19:33:48.008Z,85.60
2017-11-17T19:36:18.088Z,86.80
2017-11-17T19:38:47.321Z,86.80
2017-11-17T19:41:19.375Z,86.30
2017-11-17T19:43:48.612Z,86.30
2017-11-17T19:46:18.642Z,87.50
2017-11-17T19:48:58.654Z,86.80
2017-11-17T19:51:27.893Z,87.00
2017-11-17T19:53:57.931Z,86.80
2017-11-17T19:56:39.337Z,86.80
2017-11-17T19:59:08.600Z,86.90
2017-11-17T20:01:37.876Z,87.20
2017-11-17T20:04:07.129Z,87.20
2017-11-17T20:06:36.371Z,87.10
2017-11-17T20:09:05.653Z,87.00
2017-11-17T20:11:35.662Z,87.00
2017-11-17T20:14:04.921Z,87.00
2017-11-17T20:16:34.173Z,87.00
2017-11-17T20:19:04.204Z,87.50
2017-11-17T20:21:34.223Z,87.40
2017-11-17T20:24:03.510Z,87.40
2017-11-17T20:26:33.512Z,87.60
2017-11-17T20:29:02.804Z,87.40
2017-11-17T20:31:32.038Z,87.20
2017-11-17T20:34:02.090Z,87.40
2017-11-17T20:36:31.334Z,87.40
2017-11-17T20:39:00.576Z,87.70
2017-11-17T20:41:30.597Z,87.80
2017-11-17T20:43:59.843Z,87.70
2017-11-17T20:46:29.115Z,88.00
2017-11-17T20:48:58.362Z,88.40
2017-11-17T20:51:28.422Z,90.20
2017-11-17T20:53:57.663Z,89.70
2017-11-17T20:56:28.530Z,89.90
2017-11-17T20:58:57.789Z,89.90
2017-11-17T21:01:27.045Z,90.00
2017-11-17T21:03:56.291Z,90.10
2017-11-17T21:06:25.554Z,90.50
2017-11-17T21:08:54.801Z,90.00
2017-11-17T21:11:24.066Z,89.80
2017-11-17T21:13:53.314Z,89.80
2017-11-17T21:16:23.325Z,89.80
2017-11-17T21:18:52.567Z,89.70
2017-11-17T21:21:21.816Z,89.60
2017-11-17T21:23:51.092Z,89.30
2017-11-17T21:26:20.349Z,89.50
2017-11-17T21:28:50.373Z,89.40
2017-11-17T21:31:19.627Z,89.40
2017-11-17T21:33:48.889Z,90.00
2017-11-17T21:36:18.192Z,89.00
2017-11-17T21:38:47.433Z,89.00
2017-11-17T21:41:16.692Z,89.40
2017-11-17T21:43:45.954Z,89.60
2017-11-17T21:46:15.205Z,89.80
2017-11-17T21:48:44.473Z,90.10
2017-11-17T21:51:13.732Z,89.90
2017-11-17T21:53:43.055Z,89.80
2017-11-17T21:56:12.267Z,89.80
2017-11-17T21:58:41.539Z,90.00
2017-11-17T22:01:10.975Z,90.00
2017-11-17T22:03:40.187Z,90.00
2017-11-17T22:06:09.449Z,89.90
2017-11-17T22:08:38.701Z,89.50
2017-11-17T22:11:07.945Z,89.30
2017-11-17T22:13:37.205Z,89.20
2017-11-17T22:16:06.461Z,89.10
2017-11-17T22:18:36.498Z,89.40
2017-11-17T22:21:05.748Z,89.40
2017-11-17T22:23:34.992Z,89.50
2017-11-17T22:26:04.286Z,89.30
2017-11-17T22:28:33.538Z,89.10
2017-11-17T22:31:02.796Z,89.40
2017-11-17T22:33:32.074Z,89.70
2017-11-17T22:36:02.084Z,89.70
2017-11-17T22:38:32.122Z,90.10
2017-11-17T22:41:01.378Z,89.60
2017-11-17T22:43:30.629Z,89.70
2017-11-17T22:45:59.893Z,89.80
2017-11-17T22:48:29.145Z,89.60
2017-11-17T22:50:58.427Z,89.90
2017-11-17T22:53:27.681Z,90.00
2017-11-17T22:55:56.925Z,90.00
2017-11-17T22:58:26.190Z,89.70
2017-11-17T23:00:55.461Z,90.00
2017-11-17T23:03:25.824Z,89.80
2017-11-17T23:05:55.143Z,89.90
2017-11-17T23:08:25.130Z,89.30
2017-11-17T23:10:54.386Z,89.20
2017-11-17T23:13:23.645Z,89.00
2017-11-17T23:15:53.708Z,88.20
2017-11-17T23:18:22.962Z,88.80
2017-11-17T23:20:52.217Z,88.60
2017-11-17T23:23:21.475Z,88.70
2017-11-17T23:25:51.485Z,88.80
2017-11-17T23:28:23.140Z,88.90
2017-11-17T23:30:53.166Z,89.10
2017-11-17T23:33:23.209Z,89.10
2017-11-17T23:35:52.479Z,89.10
2017-11-17T23:38:22.512Z,89.40
2017-11-17T23:40:51.765Z,89.40
2017-11-17T23:43:21.025Z,89.70
2017-11-17T23:45:50.291Z,89.90
2017-11-17T23:48:20.325Z,90.20
2017-11-17T23:50:49.582Z,90.20
2017-11-17T23:53:18.838Z,90.30
2017-11-17T23:55:48.084Z,90.30
2017-11-17T23:58:17.349Z,90.30
